Terminal Aerodrome Forecast
Issued by NWS

Home | Current Version | Previous Version | Text Only | Print | Product List | Glossary On
Versions: 1 2 3 4 5 6 7 8 9 10 11 12 13 14 15 16 17 18 19 20 21
000
FTUS43 KBIS 301405 AAA
TAFDIK
TAF AMD
KDIK 301405Z 3014/3112 08007KT P6SM VCTS BKN070CB
      TEMPO 3016/3019 VRB15G25KT 3SM TSRAGS OVC040CB
     FM301900 35010G18KT P6SM -SHRA BKN045
     FM302100 32012G20KT P6SM SCT070
     FM310800 27011KT P6SM FEW200=

USA.gov is the U.S. government's official web portal to all federal, state and local government web resources and services.